LAN2387 SKBO-SPJC
Flight info
| Callsign | LAN2387 |
|---|---|
| Flight time | 2h 24m |
| Altitude | 38000 |
| Route | KAMIS6A KAMIS DCT GIR UL305 TAP UL342 ILROL |
| Aircraft | A320/M-SDE3FGHIRWY/LB1 |
Departure
| Time | 2026-05-04 20:30 |
|---|---|
| Airport | El Dorado International Airport (SKBO) |
Arrival
| Time | 2026-05-04 22:54 |
|---|---|
| Airport | Jorge Chávez International Airport (SPJC) |
| Time | Latitude | Longitude | Altitude | Speed | Heading |
|---|---|---|---|---|---|
| 2026-05-04 19:39 | 4.70026 | -74.14382 | 8366 ft | 0 kts | 37° |
| 2026-05-04 20:11 | 4.70024 | -74.14383 | 8366 ft | 1 kts | 37° |
| 2026-05-04 20:11 | 4.70010 | -74.14393 | 8366 ft | 3 kts | 29° |
| 2026-05-04 20:11 | 4.69992 | -74.14402 | 8366 ft | 3 kts | 14° |
| 2026-05-04 20:12 | 4.69973 | -74.14404 | 8366 ft | 3 kts | 346° |
| 2026-05-04 20:12 | 4.69959 | -74.14398 | 8366 ft | 1 kts | 308° |
| 2026-05-04 20:12 | 4.69956 | -74.14394 | 8366 ft | 0 kts | 307° |
| 2026-05-04 20:17 | 4.69958 | -74.14396 | 8366 ft | 1 kts | 307° |
| 2026-05-04 20:17 | 4.69958 | -74.14397 | 8366 ft | 0 kts | 307° |
| 2026-05-04 20:17 | 4.69959 | -74.14398 | 8366 ft | 1 kts | 307° |
| 2026-05-04 20:17 | 4.69966 | -74.14407 | 8366 ft | 1 kts | 307° |
| 2026-05-04 20:18 | 4.69967 | -74.14408 | 8366 ft | 1 kts | 307° |
| 2026-05-04 20:18 | 4.69975 | -74.14419 | 8366 ft | 2 kts | 307° |
| 2026-05-04 20:18 | 4.69989 | -74.14438 | 8366 ft | 5 kts | 307° |
| 2026-05-04 20:18 | 4.70010 | -74.14466 | 8366 ft | 5 kts | 307° |
| 2026-05-04 20:19 | 4.70037 | -74.14501 | 8366 ft | 7 kts | 307° |
| 2026-05-04 20:19 | 4.70064 | -74.14536 | 8366 ft | 6 kts | 306° |
| 2026-05-04 20:19 | 4.70080 | -74.14589 | 8366 ft | 9 kts | 289° |
| 2026-05-04 20:19 | 4.70117 | -74.14634 | 8366 ft | 9 kts | 321° |
| 2026-05-04 20:20 | 4.70156 | -74.14683 | 8366 ft | 10 kts | 275° |
| 2026-05-04 20:20 | 4.70112 | -74.14741 | 8366 ft | 12 kts | 216° |
| 2026-05-04 20:20 | 4.70044 | -74.14791 | 8366 ft | 13 kts | 217° |
| 2026-05-04 20:20 | 4.69970 | -74.14848 | 8366 ft | 11 kts | 217° |
| 2026-05-04 20:21 | 4.69940 | -74.14870 | 8366 ft | 0 kts | 217° |
| 2026-05-04 20:21 | 4.69931 | -74.14877 | 8366 ft | 4 kts | 217° |
| 2026-05-04 20:21 | 4.69858 | -74.14936 | 8366 ft | 9 kts | 235° |
| 2026-05-04 20:22 | 4.69877 | -74.15006 | 8366 ft | 13 kts | 307° |
| 2026-05-04 20:22 | 4.69936 | -74.15085 | 8366 ft | 16 kts | 307° |
| 2026-05-04 20:22 | 4.70008 | -74.15178 | 8366 ft | 18 kts | 308° |
| 2026-05-04 20:22 | 4.70082 | -74.15277 | 8366 ft | 18 kts | 307° |
| 2026-05-04 20:23 | 4.70158 | -74.15376 | 8366 ft | 18 kts | 307° |
| 2026-05-04 20:23 | 4.70232 | -74.15472 | 8366 ft | 17 kts | 307° |
| 2026-05-04 20:23 | 4.70307 | -74.15572 | 8366 ft | 19 kts | 308° |
| 2026-05-04 20:23 | 4.70384 | -74.15673 | 8365 ft | 18 kts | 307° |
| 2026-05-04 20:24 | 4.70457 | -74.15770 | 8366 ft | 17 kts | 307° |
| 2026-05-04 20:24 | 4.70527 | -74.15861 | 8366 ft | 16 kts | 306° |
| 2026-05-04 20:24 | 4.70597 | -74.15957 | 8366 ft | 17 kts | 307° |
| 2026-05-04 20:24 | 4.70669 | -74.16051 | 8366 ft | 17 kts | 307° |
| 2026-05-04 20:25 | 4.70739 | -74.16144 | 8366 ft | 16 kts | 307° |
| 2026-05-04 20:25 | 4.70808 | -74.16235 | 8366 ft | 17 kts | 307° |
| 2026-05-04 20:25 | 4.70880 | -74.16330 | 8366 ft | 17 kts | 306° |
| 2026-05-04 20:25 | 4.70952 | -74.16425 | 8366 ft | 17 kts | 307° |
| 2026-05-04 20:26 | 4.71027 | -74.16523 | 8366 ft | 18 kts | 307° |
| 2026-05-04 20:26 | 4.71102 | -74.16623 | 8366 ft | 17 kts | 306° |
| 2026-05-04 20:26 | 4.71173 | -74.16717 | 8366 ft | 16 kts | 308° |
| 2026-05-04 20:26 | 4.71241 | -74.16805 | 8366 ft | 15 kts | 302° |
| 2026-05-04 20:27 | 4.71225 | -74.16871 | 8366 ft | 5 kts | 217° |
| 2026-05-04 20:27 | 4.71221 | -74.16873 | 8366 ft | 0 kts | 214° |
| 2026-05-04 20:28 | 4.71216 | -74.16877 | 8366 ft | 3 kts | 214° |
| 2026-05-04 20:28 | 4.71182 | -74.16893 | 8365 ft | 8 kts | 193° |
| 2026-05-04 20:28 | 4.71125 | -74.16891 | 8364 ft | 8 kts | 174° |
| 2026-05-04 20:28 | 4.71072 | -74.16886 | 8363 ft | 8 kts | 174° |
| 2026-05-04 20:29 | 4.71008 | -74.16857 | 8363 ft | 21 kts | 133° |
| 2026-05-04 20:29 | 4.70790 | -74.16569 | 8364 ft | 80 kts | 127° |
| 2026-05-04 20:29 | 4.70352 | -74.15992 | 8365 ft | 126 kts | 127° |
| 2026-05-04 20:29 | 4.69740 | -74.15186 | 8369 ft | 162 kts | 125° |
| 2026-05-04 20:30 | 4.69049 | -74.14281 | 8808 ft | 162 kts | 126° |
| 2026-05-04 20:30 | 4.68364 | -74.13356 | 9186 ft | 169 kts | 125° |
| 2026-05-04 20:30 | 4.67660 | -74.12419 | 9609 ft | 169 kts | 126° |
| 2026-05-04 20:30 | 4.66909 | -74.11446 | 9811 ft | 186 kts | 132° |
| 2026-05-04 20:31 | 4.65720 | -74.10850 | 10013 ft | 204 kts | 177° |
| 2026-05-04 20:31 | 4.64343 | -74.11259 | 10351 ft | 218 kts | 217° |
| 2026-05-04 20:31 | 4.63492 | -74.12536 | 10670 ft | 230 kts | 254° |
| 2026-05-04 20:31 | 4.63105 | -74.14137 | 10942 ft | 244 kts | 257° |
| 2026-05-04 20:32 | 4.62740 | -74.15870 | 11158 ft | 264 kts | 257° |
| 2026-05-04 20:32 | 4.62359 | -74.17728 | 11490 ft | 281 kts | 257° |
| 2026-05-04 20:32 | 4.61951 | -74.19685 | 11960 ft | 291 kts | 257° |
| 2026-05-04 20:32 | 4.61527 | -74.21685 | 12588 ft | 295 kts | 257° |
| 2026-05-04 20:33 | 4.61092 | -74.23704 | 13241 ft | 298 kts | 256° |
| 2026-05-04 20:33 | 4.60646 | -74.25746 | 13909 ft | 301 kts | 256° |
| 2026-05-04 20:33 | 4.59996 | -74.27737 | 14495 ft | 302 kts | 237° |
| 2026-05-04 20:33 | 4.58779 | -74.29499 | 14801 ft | 316 kts | 232° |
| 2026-05-04 20:34 | 4.57486 | -74.31315 | 15023 ft | 332 kts | 233° |
| 2026-05-04 20:34 | 4.56127 | -74.33258 | 15254 ft | 349 kts | 234° |
| 2026-05-04 20:34 | 4.54710 | -74.35306 | 15473 ft | 365 kts | 234° |
| 2026-05-04 20:34 | 4.53237 | -74.37445 | 15666 ft | 382 kts | 234° |
| 2026-05-04 20:35 | 4.51705 | -74.39666 | 15879 ft | 392 kts | 233° |
| 2026-05-04 20:35 | 4.50138 | -74.41935 | 16326 ft | 397 kts | 234° |
| 2026-05-04 20:35 | 4.48560 | -74.44218 | 16819 ft | 401 kts | 234° |
| 2026-05-04 20:35 | 4.46966 | -74.46522 | 17346 ft | 403 kts | 233° |
| 2026-05-04 20:36 | 4.45360 | -74.48842 | 17822 ft | 407 kts | 233° |
| 2026-05-04 20:36 | 4.43738 | -74.51181 | 18272 ft | 411 kts | 233° |
| 2026-05-04 20:36 | 4.42097 | -74.53550 | 18675 ft | 415 kts | 234° |
| 2026-05-04 20:36 | 4.40445 | -74.55936 | 19080 ft | 418 kts | 233° |
| 2026-05-04 20:37 | 4.38785 | -74.58331 | 19494 ft | 421 kts | 233° |
| 2026-05-04 20:37 | 4.37110 | -74.60747 | 19922 ft | 424 kts | 233° |
| 2026-05-04 20:37 | 4.35424 | -74.63178 | 20347 ft | 426 kts | 234° |
| 2026-05-04 20:37 | 4.33726 | -74.65629 | 20762 ft | 429 kts | 234° |
| 2026-05-04 20:38 | 4.32017 | -74.68096 | 21170 ft | 432 kts | 234° |
| 2026-05-04 20:38 | 4.30296 | -74.70580 | 21588 ft | 435 kts | 234° |
| 2026-05-04 20:38 | 4.28566 | -74.73078 | 22001 ft | 438 kts | 234° |
| 2026-05-04 20:38 | 4.26829 | -74.75582 | 22412 ft | 441 kts | 234° |
| 2026-05-04 20:39 | 4.25069 | -74.78118 | 22815 ft | 443 kts | 234° |
| 2026-05-04 20:39 | 4.23303 | -74.80660 | 23204 ft | 446 kts | 233° |
| 2026-05-04 20:39 | 4.21294 | -74.83021 | 23553 ft | 446 kts | 222° |
| 2026-05-04 20:39 | 4.18905 | -74.84986 | 23882 ft | 445 kts | 212° |
| 2026-05-04 20:40 | 4.16207 | -74.86502 | 24217 ft | 444 kts | 202° |
| 2026-05-04 20:40 | 4.13304 | -74.87526 | 24565 ft | 443 kts | 192° |
| 2026-05-04 20:40 | 4.10277 | -74.88112 | 24887 ft | 444 kts | 188° |
| 2026-05-04 20:40 | 4.07233 | -74.88637 | 25192 ft | 446 kts | 188° |
| 2026-05-04 20:41 | 4.04174 | -74.89168 | 25507 ft | 447 kts | 188° |
| 2026-05-04 20:41 | 4.01097 | -74.89701 | 25811 ft | 449 kts | 188° |
| 2026-05-04 20:41 | 3.98035 | -74.90230 | 26107 ft | 451 kts | 188° |
| 2026-05-04 20:41 | 3.94909 | -74.90771 | 26403 ft | 452 kts | 188° |
| 2026-05-04 20:42 | 3.91809 | -74.91309 | 26679 ft | 454 kts | 188° |
| 2026-05-04 20:42 | 3.88685 | -74.91855 | 26945 ft | 456 kts | 188° |
| 2026-05-04 20:42 | 3.85554 | -74.92400 | 27209 ft | 457 kts | 188° |
| 2026-05-04 20:42 | 3.82411 | -74.92946 | 27466 ft | 459 kts | 188° |
| 2026-05-04 20:43 | 3.79267 | -74.93493 | 27713 ft | 461 kts | 188° |
| 2026-05-04 20:43 | 3.76100 | -74.94043 | 27962 ft | 462 kts | 188° |
| 2026-05-04 20:43 | 3.72927 | -74.94596 | 28211 ft | 464 kts | 188° |
| 2026-05-04 20:43 | 3.69746 | -74.95151 | 28436 ft | 465 kts | 188° |
| 2026-05-04 20:44 | 3.66550 | -74.95707 | 28663 ft | 467 kts | 188° |
| 2026-05-04 20:44 | 3.63396 | -74.96255 | 28875 ft | 468 kts | 188° |
| 2026-05-04 20:44 | 3.60131 | -74.96823 | 29094 ft | 470 kts | 188° |
| 2026-05-04 20:44 | 3.56909 | -74.97382 | 29290 ft | 471 kts | 188° |
| 2026-05-04 20:45 | 3.53680 | -74.97940 | 29484 ft | 472 kts | 188° |
| 2026-05-04 20:45 | 3.50437 | -74.98500 | 29673 ft | 473 kts | 188° |
| 2026-05-04 20:45 | 3.47207 | -74.99058 | 29859 ft | 475 kts | 188° |
| 2026-05-04 20:45 | 3.43921 | -74.99624 | 30033 ft | 476 kts | 188° |
| 2026-05-04 20:46 | 3.40653 | -75.00190 | 30191 ft | 477 kts | 188° |
| 2026-05-04 20:46 | 3.37378 | -75.00759 | 30379 ft | 477 kts | 188° |
| 2026-05-04 20:46 | 3.34115 | -75.01327 | 30599 ft | 476 kts | 188° |
| 2026-05-04 20:46 | 3.30855 | -75.01893 | 30818 ft | 475 kts | 188° |
| 2026-05-04 20:47 | 3.27595 | -75.02458 | 31009 ft | 475 kts | 188° |
| 2026-05-04 20:47 | 3.24403 | -75.03013 | 31220 ft | 474 kts | 188° |
| 2026-05-04 20:47 | 3.21180 | -75.03574 | 31428 ft | 474 kts | 188° |
| 2026-05-04 20:47 | 3.17942 | -75.04139 | 31641 ft | 474 kts | 188° |
| 2026-05-04 20:48 | 3.14974 | -75.04655 | 31844 ft | 473 kts | 188° |
| 2026-05-04 20:48 | 3.11893 | -75.05181 | 32055 ft | 473 kts | 188° |
| 2026-05-04 20:48 | 3.08657 | -75.05737 | 32276 ft | 472 kts | 188° |
| 2026-05-04 20:48 | 3.05402 | -75.06302 | 32511 ft | 472 kts | 188° |
| 2026-05-04 20:49 | 3.02212 | -75.06857 | 32722 ft | 471 kts | 188° |
| 2026-05-04 20:49 | 2.98986 | -75.07421 | 32952 ft | 471 kts | 188° |
| 2026-05-04 20:49 | 2.95718 | -75.07993 | 33186 ft | 470 kts | 188° |
| 2026-05-04 20:49 | 2.92538 | -75.08548 | 33415 ft | 469 kts | 188° |
| 2026-05-04 20:50 | 2.89319 | -75.09107 | 33654 ft | 469 kts | 188° |
| 2026-05-04 20:50 | 2.86105 | -75.09664 | 33901 ft | 468 kts | 188° |
| 2026-05-04 20:50 | 2.82894 | -75.10219 | 34129 ft | 468 kts | 188° |
| 2026-05-04 20:50 | 2.79876 | -75.10741 | 34344 ft | 467 kts | 188° |
| 2026-05-04 20:51 | 2.76635 | -75.11301 | 34580 ft | 467 kts | 188° |
| 2026-05-04 20:51 | 2.73439 | -75.11853 | 34811 ft | 466 kts | 188° |
| 2026-05-04 20:51 | 2.70254 | -75.12403 | 34996 ft | 466 kts | 188° |
| 2026-05-04 20:51 | 2.67061 | -75.12953 | 35195 ft | 466 kts | 188° |
| 2026-05-04 20:52 | 2.63866 | -75.13505 | 35389 ft | 465 kts | 188° |
| 2026-05-04 20:52 | 2.60683 | -75.14056 | 35571 ft | 465 kts | 188° |
| 2026-05-04 20:52 | 2.57491 | -75.14609 | 35739 ft | 464 kts | 188° |
| 2026-05-04 20:52 | 2.54308 | -75.15165 | 35921 ft | 464 kts | 188° |
| 2026-05-04 20:53 | 2.51126 | -75.15720 | 36099 ft | 464 kts | 188° |
| 2026-05-04 20:53 | 2.47948 | -75.16273 | 36269 ft | 464 kts | 188° |
| 2026-05-04 20:53 | 2.44766 | -75.16824 | 36437 ft | 464 kts | 188° |
| 2026-05-04 20:53 | 2.41587 | -75.17372 | 36614 ft | 464 kts | 188° |
| 2026-05-04 20:54 | 2.38435 | -75.17916 | 36782 ft | 463 kts | 188° |
| 2026-05-04 20:54 | 2.35231 | -75.18471 | 36937 ft | 463 kts | 188° |
| 2026-05-04 20:54 | 2.32059 | -75.19019 | 37090 ft | 462 kts | 188° |
| 2026-05-04 20:54 | 2.28889 | -75.19570 | 37232 ft | 462 kts | 188° |
| 2026-05-04 20:55 | 2.25728 | -75.20121 | 37373 ft | 462 kts | 188° |
| 2026-05-04 20:55 | 2.22559 | -75.20673 | 37508 ft | 462 kts | 188° |
| 2026-05-04 20:55 | 2.19540 | -75.21197 | 37642 ft | 461 kts | 188° |
| 2026-05-04 20:55 | 2.16377 | -75.21742 | 37778 ft | 461 kts | 188° |
| 2026-05-04 20:56 | 2.13217 | -75.22288 | 37936 ft | 460 kts | 188° |
| 2026-05-04 20:56 | 2.10055 | -75.22835 | 37996 ft | 462 kts | 188° |
| 2026-05-04 20:56 | 2.03729 | -75.23923 | 37996 ft | 462 kts | 188° |
| 2026-05-04 20:57 | 1.97403 | -75.25019 | 37987 ft | 461 kts | 188° |
| 2026-05-04 20:57 | 1.91079 | -75.26122 | 37978 ft | 461 kts | 188° |
| 2026-05-04 20:58 | 1.84762 | -75.27213 | 37972 ft | 461 kts | 188° |
| 2026-05-04 20:58 | 1.78446 | -75.28309 | 37971 ft | 460 kts | 188° |
| 2026-05-04 20:59 | 1.72140 | -75.29400 | 37972 ft | 460 kts | 188° |
| 2026-05-04 20:59 | 1.65834 | -75.30486 | 37970 ft | 460 kts | 188° |
| 2026-05-04 21:00 | 1.59534 | -75.31568 | 37963 ft | 459 kts | 188° |
| 2026-05-04 21:00 | 1.53233 | -75.32657 | 37964 ft | 459 kts | 188° |
| 2026-05-04 21:01 | 1.46936 | -75.33748 | 37951 ft | 460 kts | 188° |
| 2026-05-04 21:01 | 1.40667 | -75.34840 | 37942 ft | 460 kts | 188° |
| 2026-05-04 21:02 | 1.34361 | -75.35928 | 37928 ft | 460 kts | 188° |
| 2026-05-04 21:02 | 1.28050 | -75.37017 | 37911 ft | 461 kts | 188° |
| 2026-05-04 21:03 | 1.21720 | -75.38110 | 37921 ft | 461 kts | 188° |
| 2026-05-04 21:03 | 1.15395 | -75.39203 | 37934 ft | 461 kts | 188° |
| 2026-05-04 21:04 | 1.09114 | -75.40292 | 37924 ft | 461 kts | 188° |
| 2026-05-04 21:04 | 1.02796 | -75.41386 | 37926 ft | 461 kts | 188° |
| 2026-05-04 21:05 | 0.96479 | -75.42482 | 37926 ft | 461 kts | 188° |
| 2026-05-04 21:05 | 0.90156 | -75.43578 | 37927 ft | 461 kts | 188° |
| 2026-05-04 21:06 | 0.84853 | -75.44490 | 37929 ft | 461 kts | 188° |
| 2026-05-04 21:06 | 0.77557 | -75.45749 | 37930 ft | 462 kts | 188° |
| 2026-05-04 21:07 | 0.72197 | -75.46675 | 37943 ft | 462 kts | 188° |
| 2026-05-04 21:07 | 0.64828 | -75.47945 | 37944 ft | 462 kts | 188° |
| 2026-05-04 21:08 | 0.59565 | -75.48851 | 37942 ft | 462 kts | 188° |
| 2026-05-04 21:08 | 0.53211 | -75.49947 | 37947 ft | 462 kts | 188° |
| 2026-05-04 21:09 | 0.46866 | -75.51052 | 37945 ft | 463 kts | 188° |
| 2026-05-04 21:09 | 0.40527 | -75.52150 | 37948 ft | 463 kts | 188° |
| 2026-05-04 21:10 | 0.34176 | -75.53245 | 37956 ft | 463 kts | 188° |
| 2026-05-04 21:10 | 0.27833 | -75.54334 | 37961 ft | 463 kts | 188° |
| 2026-05-04 21:11 | 0.21487 | -75.55428 | 37962 ft | 463 kts | 188° |
| 2026-05-04 21:11 | 0.15198 | -75.56519 | 37965 ft | 462 kts | 188° |
| 2026-05-04 21:12 | 0.08987 | -75.57593 | 37967 ft | 462 kts | 188° |
| 2026-05-04 21:12 | 0.02653 | -75.58686 | 37962 ft | 462 kts | 187° |
| 2026-05-04 21:13 | -0.03686 | -75.59765 | 37959 ft | 462 kts | 188° |
| 2026-05-04 21:13 | -0.10021 | -75.60847 | 37961 ft | 462 kts | 188° |
| 2026-05-04 21:14 | -0.16352 | -75.61931 | 37959 ft | 461 kts | 188° |
| 2026-05-04 21:14 | -0.22674 | -75.63016 | 37962 ft | 461 kts | 188° |
| 2026-05-04 21:15 | -0.28958 | -75.64085 | 37960 ft | 461 kts | 188° |
| 2026-05-04 21:15 | -0.35276 | -75.65157 | 37957 ft | 461 kts | 188° |
| 2026-05-04 21:16 | -0.41598 | -75.66237 | 37959 ft | 461 kts | 188° |
| 2026-05-04 21:16 | -0.47913 | -75.67321 | 37961 ft | 461 kts | 188° |
| 2026-05-04 21:17 | -0.54233 | -75.68404 | 37957 ft | 461 kts | 188° |
| 2026-05-04 21:17 | -0.60552 | -75.69482 | 37953 ft | 461 kts | 188° |
| 2026-05-04 21:18 | -0.66866 | -75.70561 | 37952 ft | 461 kts | 188° |
| 2026-05-04 21:18 | -0.73193 | -75.71648 | 37957 ft | 461 kts | 188° |
| 2026-05-04 21:19 | -0.79522 | -75.72736 | 37953 ft | 461 kts | 188° |
| 2026-05-04 21:19 | -0.85845 | -75.73813 | 37945 ft | 461 kts | 188° |
| 2026-05-04 21:20 | -0.92175 | -75.74890 | 37942 ft | 461 kts | 188° |
| 2026-05-04 21:20 | -0.98500 | -75.75973 | 37943 ft | 461 kts | 188° |
| 2026-05-04 21:21 | -1.04828 | -75.77052 | 37951 ft | 461 kts | 188° |
| 2026-05-04 21:21 | -1.11145 | -75.78131 | 37948 ft | 461 kts | 188° |
| 2026-05-04 21:22 | -1.17473 | -75.79224 | 37956 ft | 461 kts | 188° |
| 2026-05-04 21:22 | -1.23790 | -75.80310 | 37954 ft | 461 kts | 188° |
| 2026-05-04 21:23 | -1.30126 | -75.81385 | 37957 ft | 461 kts | 188° |
| 2026-05-04 21:23 | -1.36447 | -75.82458 | 37963 ft | 461 kts | 188° |
| 2026-05-04 21:24 | -1.42752 | -75.83537 | 37960 ft | 461 kts | 188° |
| 2026-05-04 21:24 | -1.49080 | -75.84622 | 37954 ft | 460 kts | 188° |
| 2026-05-04 21:25 | -1.55391 | -75.85706 | 37955 ft | 460 kts | 188° |
| 2026-05-04 21:25 | -1.61709 | -75.86782 | 37958 ft | 460 kts | 188° |
| 2026-05-04 21:26 | -1.68014 | -75.87856 | 37954 ft | 460 kts | 188° |
| 2026-05-04 21:26 | -1.74319 | -75.88941 | 37955 ft | 460 kts | 188° |
| 2026-05-04 21:27 | -1.80625 | -75.90024 | 37954 ft | 459 kts | 188° |
| 2026-05-04 21:27 | -1.86924 | -75.91095 | 37950 ft | 459 kts | 188° |
| 2026-05-04 21:28 | -1.93214 | -75.92168 | 37953 ft | 459 kts | 188° |
| 2026-05-04 21:28 | -1.99477 | -75.93236 | 37955 ft | 459 kts | 187° |
| 2026-05-04 21:29 | -2.05810 | -75.94029 | 37958 ft | 458 kts | 183° |
| 2026-05-04 21:29 | -2.12157 | -75.94509 | 37955 ft | 458 kts | 182° |
| 2026-05-04 21:30 | -2.18516 | -75.94978 | 37954 ft | 458 kts | 183° |
| 2026-05-04 21:30 | -2.24779 | -75.95513 | 37950 ft | 459 kts | 184° |
| 2026-05-04 21:31 | -2.34237 | -75.96387 | 37958 ft | 459 kts | 184° |
| 2026-05-04 21:32 | -2.40513 | -75.96960 | 37957 ft | 459 kts | 184° |
| 2026-05-04 21:32 | -2.46895 | -75.97522 | 37952 ft | 459 kts | 183° |
| 2026-05-04 21:33 | -2.53263 | -75.98082 | 37953 ft | 459 kts | 184° |
| 2026-05-04 21:33 | -2.59608 | -75.98653 | 37947 ft | 460 kts | 184° |
| 2026-05-04 21:34 | -2.65995 | -75.99227 | 37954 ft | 460 kts | 184° |
| 2026-05-04 21:34 | -2.72308 | -75.99789 | 37956 ft | 461 kts | 184° |
| 2026-05-04 21:35 | -2.78683 | -76.00357 | 37954 ft | 461 kts | 184° |
| 2026-05-04 21:35 | -2.85053 | -76.00925 | 37952 ft | 461 kts | 184° |
| 2026-05-04 21:36 | -2.91450 | -76.01497 | 37949 ft | 461 kts | 184° |
| 2026-05-04 21:36 | -2.97850 | -76.02067 | 37938 ft | 462 kts | 184° |
| 2026-05-04 21:37 | -3.04257 | -76.02640 | 37939 ft | 463 kts | 184° |
| 2026-05-04 21:37 | -3.10666 | -76.03212 | 37942 ft | 463 kts | 184° |
| 2026-05-04 21:38 | -3.17095 | -76.03779 | 37938 ft | 464 kts | 184° |
| 2026-05-04 21:38 | -3.23531 | -76.04353 | 37937 ft | 464 kts | 184° |
| 2026-05-04 21:39 | -3.29968 | -76.04935 | 37942 ft | 466 kts | 184° |
| 2026-05-04 21:39 | -3.36409 | -76.05514 | 37946 ft | 465 kts | 184° |
| 2026-05-04 21:40 | -3.42850 | -76.06091 | 37951 ft | 464 kts | 184° |
| 2026-05-04 21:40 | -3.49288 | -76.06670 | 37952 ft | 464 kts | 183° |
| 2026-05-04 21:41 | -3.55723 | -76.07239 | 37953 ft | 464 kts | 183° |
| 2026-05-04 21:41 | -3.62164 | -76.07815 | 37953 ft | 464 kts | 183° |
| 2026-05-04 21:42 | -3.68596 | -76.08390 | 37959 ft | 464 kts | 183° |
| 2026-05-04 21:42 | -3.75022 | -76.08964 | 37965 ft | 464 kts | 183° |
| 2026-05-04 21:43 | -3.81457 | -76.09540 | 37957 ft | 464 kts | 183° |
| 2026-05-04 21:43 | -3.87890 | -76.10113 | 37949 ft | 464 kts | 183° |
| 2026-05-04 21:44 | -3.94331 | -76.10694 | 37947 ft | 465 kts | 183° |
| 2026-05-04 21:44 | -4.00780 | -76.11278 | 37945 ft | 465 kts | 183° |
| 2026-05-04 21:45 | -4.07223 | -76.11848 | 37949 ft | 465 kts | 183° |
| 2026-05-04 21:45 | -4.13678 | -76.12418 | 37951 ft | 466 kts | 183° |
| 2026-05-04 21:46 | -4.20136 | -76.12997 | 37955 ft | 466 kts | 183° |
| 2026-05-04 21:46 | -4.25511 | -76.13490 | 37950 ft | 467 kts | 183° |
| 2026-05-04 21:47 | -4.31981 | -76.14077 | 37955 ft | 467 kts | 183° |
| 2026-05-04 21:47 | -4.38451 | -76.14650 | 37957 ft | 467 kts | 183° |
| 2026-05-04 21:48 | -4.44911 | -76.15226 | 37952 ft | 467 kts | 183° |
| 2026-05-04 21:48 | -4.51398 | -76.15807 | 37946 ft | 467 kts | 183° |
| 2026-05-04 21:49 | -4.57884 | -76.16386 | 37950 ft | 468 kts | 183° |
| 2026-05-04 21:49 | -4.64372 | -76.16977 | 37954 ft | 468 kts | 183° |
| 2026-05-04 21:50 | -4.70866 | -76.17561 | 37960 ft | 469 kts | 183° |
| 2026-05-04 21:50 | -4.77365 | -76.18143 | 37961 ft | 469 kts | 183° |
| 2026-05-04 21:51 | -4.83877 | -76.18729 | 37964 ft | 470 kts | 183° |
| 2026-05-04 21:51 | -4.90386 | -76.19315 | 37957 ft | 470 kts | 183° |
| 2026-05-04 21:52 | -4.96908 | -76.19900 | 37951 ft | 470 kts | 183° |
| 2026-05-04 21:52 | -5.03427 | -76.20485 | 37946 ft | 470 kts | 183° |
| 2026-05-04 21:53 | -5.09950 | -76.21070 | 37957 ft | 471 kts | 183° |
| 2026-05-04 21:53 | -5.16388 | -76.21638 | 37960 ft | 471 kts | 183° |
| 2026-05-04 21:54 | -5.22935 | -76.22222 | 37968 ft | 471 kts | 184° |
| 2026-05-04 21:54 | -5.29454 | -76.22812 | 37963 ft | 471 kts | 184° |
| 2026-05-04 21:55 | -5.35983 | -76.23396 | 37951 ft | 471 kts | 183° |
| 2026-05-04 21:55 | -5.42432 | -76.23970 | 37950 ft | 471 kts | 184° |
| 2026-05-04 21:56 | -5.48950 | -76.24559 | 37957 ft | 471 kts | 184° |
| 2026-05-04 21:56 | -5.55481 | -76.25149 | 37963 ft | 472 kts | 184° |
| 2026-05-04 21:57 | -5.62024 | -76.25738 | 37974 ft | 472 kts | 184° |
| 2026-05-04 21:57 | -5.68561 | -76.26329 | 37970 ft | 472 kts | 184° |
| 2026-05-04 21:58 | -5.75114 | -76.26915 | 37967 ft | 472 kts | 184° |
| 2026-05-04 21:58 | -5.81658 | -76.27509 | 37967 ft | 472 kts | 184° |
| 2026-05-04 21:59 | -5.88193 | -76.28105 | 37965 ft | 472 kts | 184° |
| 2026-05-04 21:59 | -5.94733 | -76.28695 | 37972 ft | 472 kts | 184° |
| 2026-05-04 22:00 | -6.01273 | -76.29284 | 37981 ft | 472 kts | 184° |
| 2026-05-04 22:00 | -6.07807 | -76.29872 | 38000 ft | 472 kts | 184° |
| 2026-05-04 22:01 | -6.14340 | -76.30467 | 38017 ft | 471 kts | 184° |
| 2026-05-04 22:01 | -6.20872 | -76.31057 | 38016 ft | 471 kts | 184° |
| 2026-05-04 22:02 | -6.27397 | -76.31642 | 38018 ft | 471 kts | 184° |
| 2026-05-04 22:02 | -6.33948 | -76.32229 | 38004 ft | 472 kts | 184° |
| 2026-05-04 22:03 | -6.40440 | -76.32817 | 37994 ft | 472 kts | 184° |
| 2026-05-04 22:03 | -6.46983 | -76.33413 | 38006 ft | 472 kts | 184° |
| 2026-05-04 22:04 | -6.53524 | -76.34010 | 38001 ft | 472 kts | 184° |
| 2026-05-04 22:04 | -6.60066 | -76.34595 | 38012 ft | 472 kts | 184° |
| 2026-05-04 22:05 | -6.66600 | -76.35305 | 38020 ft | 472 kts | 191° |
| 2026-05-04 22:05 | -6.72999 | -76.36860 | 38028 ft | 472 kts | 193° |
| 2026-05-04 22:06 | -6.79383 | -76.38419 | 38039 ft | 472 kts | 193° |
| 2026-05-04 22:06 | -6.85737 | -76.39963 | 38052 ft | 472 kts | 193° |
| 2026-05-04 22:07 | -6.92170 | -76.41525 | 38057 ft | 473 kts | 193° |
| 2026-05-04 22:07 | -6.98560 | -76.43082 | 38054 ft | 472 kts | 193° |
| 2026-05-04 22:08 | -7.04950 | -76.44638 | 38056 ft | 472 kts | 193° |
| 2026-05-04 22:08 | -7.11286 | -76.46184 | 38059 ft | 472 kts | 193° |
| 2026-05-04 22:09 | -7.17732 | -76.47743 | 38054 ft | 472 kts | 193° |
| 2026-05-04 22:09 | -7.24117 | -76.49286 | 38055 ft | 473 kts | 193° |
| 2026-05-04 22:10 | -7.30515 | -76.50850 | 38058 ft | 473 kts | 193° |
| 2026-05-04 22:10 | -7.36910 | -76.52419 | 38051 ft | 473 kts | 193° |
| 2026-05-04 22:11 | -7.43273 | -76.53973 | 38036 ft | 474 kts | 193° |
| 2026-05-04 22:11 | -7.49649 | -76.55524 | 38044 ft | 474 kts | 193° |
| 2026-05-04 22:12 | -7.56064 | -76.57088 | 38046 ft | 474 kts | 193° |
| 2026-05-04 22:12 | -7.62470 | -76.58657 | 38043 ft | 474 kts | 193° |
| 2026-05-04 22:13 | -7.68888 | -76.60226 | 38058 ft | 475 kts | 193° |
| 2026-05-04 22:13 | -7.75318 | -76.61791 | 38063 ft | 475 kts | 193° |
| 2026-05-04 22:14 | -7.81744 | -76.63361 | 38078 ft | 475 kts | 193° |
| 2026-05-04 22:14 | -7.88167 | -76.64931 | 38084 ft | 475 kts | 193° |
| 2026-05-04 22:15 | -7.94599 | -76.66499 | 38084 ft | 476 kts | 193° |
| 2026-05-04 22:15 | -8.01047 | -76.68076 | 38095 ft | 477 kts | 193° |
| 2026-05-04 22:16 | -8.07489 | -76.69659 | 38107 ft | 477 kts | 193° |
| 2026-05-04 22:16 | -8.13945 | -76.71242 | 38128 ft | 477 kts | 193° |
| 2026-05-04 22:17 | -8.20403 | -76.72816 | 38136 ft | 478 kts | 193° |
| 2026-05-04 22:17 | -8.26860 | -76.74394 | 38154 ft | 478 kts | 193° |
| 2026-05-04 22:18 | -8.33315 | -76.75974 | 38167 ft | 478 kts | 193° |
| 2026-05-04 22:18 | -8.39777 | -76.77553 | 38176 ft | 478 kts | 193° |
| 2026-05-04 22:19 | -8.46224 | -76.79135 | 38181 ft | 478 kts | 193° |
| 2026-05-04 22:19 | -8.52689 | -76.80723 | 38197 ft | 478 kts | 193° |
| 2026-05-04 22:20 | -8.59170 | -76.82316 | 38225 ft | 479 kts | 193° |
| 2026-05-04 22:20 | -8.65639 | -76.83901 | 38227 ft | 479 kts | 193° |
| 2026-05-04 22:21 | -8.72050 | -76.85471 | 38242 ft | 478 kts | 193° |
| 2026-05-04 22:21 | -8.78577 | -76.87077 | 38237 ft | 479 kts | 193° |
| 2026-05-04 22:22 | -8.85041 | -76.88665 | 38244 ft | 478 kts | 193° |
| 2026-05-04 22:22 | -8.91468 | -76.90243 | 38246 ft | 478 kts | 193° |
| 2026-05-04 22:23 | -8.97937 | -76.91835 | 38263 ft | 477 kts | 193° |
| 2026-05-04 22:23 | -9.04401 | -76.93423 | 38260 ft | 478 kts | 193° |
| 2026-05-04 22:24 | -9.10856 | -76.95011 | 38252 ft | 478 kts | 193° |
| 2026-05-04 22:24 | -9.17315 | -76.96603 | 38259 ft | 477 kts | 193° |
| 2026-05-04 22:25 | -9.23755 | -76.98181 | 38267 ft | 477 kts | 193° |
| 2026-05-04 22:25 | -9.30212 | -76.99762 | 38273 ft | 477 kts | 193° |
| 2026-05-04 22:26 | -9.36662 | -77.01358 | 38284 ft | 476 kts | 193° |
| 2026-05-04 22:26 | -9.43106 | -77.02951 | 38293 ft | 476 kts | 193° |
| 2026-05-04 22:27 | -9.49535 | -77.04530 | 38301 ft | 476 kts | 193° |
| 2026-05-04 22:27 | -9.55971 | -77.06120 | 38309 ft | 475 kts | 194° |
| 2026-05-04 22:28 | -9.62389 | -77.07714 | 38308 ft | 474 kts | 194° |
| 2026-05-04 22:28 | -9.68796 | -77.09298 | 38306 ft | 473 kts | 194° |
| 2026-05-04 22:29 | -9.74124 | -77.10609 | 38292 ft | 474 kts | 194° |
| 2026-05-04 22:29 | -9.80543 | -77.12184 | 38279 ft | 474 kts | 194° |
| 2026-05-04 22:30 | -9.86968 | -77.13769 | 38268 ft | 475 kts | 194° |
| 2026-05-04 22:30 | -9.93375 | -77.15352 | 38278 ft | 473 kts | 194° |
| 2026-05-04 22:31 | -9.99772 | -77.16936 | 38272 ft | 473 kts | 194° |
| 2026-05-04 22:31 | -10.06154 | -77.18514 | 38268 ft | 472 kts | 194° |
| 2026-05-04 22:32 | -10.12519 | -77.20084 | 38263 ft | 471 kts | 194° |
| 2026-05-04 22:32 | -10.18889 | -77.21658 | 38244 ft | 470 kts | 194° |
| 2026-05-04 22:32 | -10.22072 | -77.22447 | 38133 ft | 470 kts | 194° |
| 2026-05-04 22:33 | -10.25246 | -77.23234 | 37558 ft | 470 kts | 194° |
| 2026-05-04 22:33 | -10.28423 | -77.24019 | 36781 ft | 470 kts | 194° |
| 2026-05-04 22:33 | -10.31619 | -77.24809 | 35902 ft | 474 kts | 194° |
| 2026-05-04 22:33 | -10.34837 | -77.25607 | 34961 ft | 479 kts | 194° |
| 2026-05-04 22:34 | -10.38092 | -77.26416 | 34024 ft | 483 kts | 194° |
| 2026-05-04 22:34 | -10.41381 | -77.27233 | 32825 ft | 490 kts | 194° |
| 2026-05-04 22:34 | -10.44713 | -77.28061 | 31658 ft | 495 kts | 193° |
| 2026-05-04 22:34 | -10.48068 | -77.28892 | 30508 ft | 498 kts | 193° |
| 2026-05-04 22:35 | -10.51444 | -77.29724 | 29429 ft | 497 kts | 193° |
| 2026-05-04 22:35 | -10.54753 | -77.30564 | 28790 ft | 486 kts | 194° |
| 2026-05-04 22:35 | -10.58003 | -77.31434 | 28023 ft | 480 kts | 194° |
| 2026-05-04 22:35 | -10.61200 | -77.32322 | 27293 ft | 474 kts | 195° |
| 2026-05-04 22:36 | -10.64359 | -77.33213 | 26572 ft | 468 kts | 195° |
| 2026-05-04 22:36 | -10.67483 | -77.34090 | 25869 ft | 463 kts | 195° |
| 2026-05-04 22:36 | -10.70579 | -77.34946 | 25162 ft | 459 kts | 194° |
| 2026-05-04 22:36 | -10.73645 | -77.35787 | 24496 ft | 454 kts | 194° |
| 2026-05-04 22:37 | -10.76685 | -77.36616 | 23861 ft | 449 kts | 194° |
| 2026-05-04 22:37 | -10.79694 | -77.37431 | 23146 ft | 445 kts | 194° |
| 2026-05-04 22:37 | -10.82662 | -77.38235 | 22519 ft | 439 kts | 194° |
| 2026-05-04 22:37 | -10.85597 | -77.39030 | 21893 ft | 434 kts | 194° |
| 2026-05-04 22:38 | -10.88499 | -77.39819 | 21278 ft | 430 kts | 194° |
| 2026-05-04 22:38 | -10.91376 | -77.40604 | 20662 ft | 426 kts | 193° |
| 2026-05-04 22:38 | -10.94230 | -77.41384 | 20054 ft | 423 kts | 193° |
| 2026-05-04 22:38 | -10.97068 | -77.42163 | 19448 ft | 421 kts | 193° |
| 2026-05-04 22:39 | -10.99888 | -77.42936 | 18850 ft | 419 kts | 193° |
| 2026-05-04 22:39 | -11.02688 | -77.43704 | 18244 ft | 416 kts | 193° |
| 2026-05-04 22:39 | -11.05443 | -77.44460 | 17597 ft | 401 kts | 193° |
| 2026-05-04 22:39 | -11.08107 | -77.45188 | 17048 ft | 394 kts | 193° |
| 2026-05-04 22:40 | -11.10749 | -77.45909 | 16482 ft | 392 kts | 193° |
| 2026-05-04 22:40 | -11.13381 | -77.46626 | 15919 ft | 390 kts | 194° |
| 2026-05-04 22:40 | -11.15990 | -77.47336 | 15442 ft | 385 kts | 194° |
| 2026-05-04 22:40 | -11.18530 | -77.48025 | 15297 ft | 370 kts | 194° |
| 2026-05-04 22:41 | -11.20973 | -77.48693 | 15192 ft | 357 kts | 194° |
| 2026-05-04 22:41 | -11.23361 | -77.49116 | 15073 ft | 342 kts | 181° |
| 2026-05-04 22:41 | -11.25681 | -77.48924 | 14945 ft | 328 kts | 166° |
| 2026-05-04 22:41 | -11.27804 | -77.48202 | 14506 ft | 318 kts | 154° |
| 2026-05-04 22:42 | -11.29806 | -77.47257 | 13907 ft | 315 kts | 154° |
| 2026-05-04 22:42 | -11.31798 | -77.46310 | 13449 ft | 316 kts | 154° |
| 2026-05-04 22:42 | -11.33792 | -77.45364 | 13007 ft | 316 kts | 154° |
| 2026-05-04 22:42 | -11.35784 | -77.44421 | 12587 ft | 315 kts | 155° |
| 2026-05-04 22:43 | -11.37773 | -77.43482 | 12167 ft | 315 kts | 155° |
| 2026-05-04 22:43 | -11.39754 | -77.42549 | 11787 ft | 312 kts | 155° |
| 2026-05-04 22:43 | -11.41729 | -77.41618 | 11343 ft | 313 kts | 155° |
| 2026-05-04 22:43 | -11.43694 | -77.40691 | 10961 ft | 311 kts | 155° |
| 2026-05-04 22:44 | -11.45658 | -77.39766 | 10554 ft | 309 kts | 155° |
| 2026-05-04 22:44 | -11.47606 | -77.38850 | 10123 ft | 310 kts | 155° |
| 2026-05-04 22:44 | -11.49556 | -77.37932 | 9782 ft | 306 kts | 155° |
| 2026-05-04 22:44 | -11.51491 | -77.37019 | 9309 ft | 305 kts | 155° |
| 2026-05-04 22:45 | -11.53409 | -77.36111 | 8894 ft | 303 kts | 155° |
| 2026-05-04 22:45 | -11.57202 | -77.34316 | 8069 ft | 298 kts | 155° |
| 2026-05-04 22:45 | -11.59077 | -77.33430 | 7676 ft | 295 kts | 155° |
| 2026-05-04 22:46 | -11.60891 | -77.32573 | 7527 ft | 282 kts | 155° |
| 2026-05-04 22:46 | -11.62643 | -77.31746 | 7338 ft | 272 kts | 155° |
| 2026-05-04 22:46 | -11.64341 | -77.30945 | 7072 ft | 268 kts | 155° |
| 2026-05-04 22:46 | -11.66028 | -77.30151 | 6683 ft | 267 kts | 155° |
| 2026-05-04 22:47 | -11.67695 | -77.29368 | 6275 ft | 267 kts | 155° |
| 2026-05-04 22:47 | -11.69376 | -77.28577 | 5857 ft | 266 kts | 155° |
| 2026-05-04 22:47 | -11.71073 | -77.27777 | 5453 ft | 264 kts | 155° |
| 2026-05-04 22:47 | -11.72735 | -77.26993 | 5058 ft | 262 kts | 155° |
| 2026-05-04 22:48 | -11.74387 | -77.26212 | 4660 ft | 261 kts | 155° |
| 2026-05-04 22:48 | -11.76029 | -77.25435 | 4252 ft | 259 kts | 155° |
| 2026-05-04 22:48 | -11.77588 | -77.24698 | 4155 ft | 238 kts | 155° |
| 2026-05-04 22:48 | -11.79059 | -77.24003 | 4077 ft | 224 kts | 155° |
| 2026-05-04 22:49 | -11.80415 | -77.23308 | 3985 ft | 221 kts | 146° |
| 2026-05-04 22:49 | -11.81673 | -77.22415 | 3742 ft | 219 kts | 145° |
| 2026-05-04 22:49 | -11.82928 | -77.21523 | 3503 ft | 215 kts | 145° |
| 2026-05-04 22:49 | -11.84130 | -77.20671 | 3278 ft | 212 kts | 145° |
| 2026-05-04 22:50 | -11.85339 | -77.19838 | 3048 ft | 208 kts | 149° |
| 2026-05-04 22:50 | -11.86594 | -77.19134 | 2828 ft | 204 kts | 153° |
| 2026-05-04 22:50 | -11.87843 | -77.18504 | 2743 ft | 193 kts | 154° |
| 2026-05-04 22:50 | -11.89039 | -77.17913 | 2548 ft | 190 kts | 154° |
| 2026-05-04 22:51 | -11.90223 | -77.17329 | 2317 ft | 186 kts | 154° |
| 2026-05-04 22:51 | -11.91369 | -77.16765 | 2081 ft | 178 kts | 154° |
| 2026-05-04 22:51 | -11.92444 | -77.16235 | 1857 ft | 165 kts | 154° |
| 2026-05-04 22:51 | -11.93432 | -77.15749 | 1673 ft | 149 kts | 154° |
| 2026-05-04 22:52 | -11.94326 | -77.15308 | 1482 ft | 139 kts | 155° |
| 2026-05-04 22:52 | -11.95200 | -77.14877 | 1298 ft | 140 kts | 155° |
| 2026-05-04 22:52 | -11.96081 | -77.14443 | 1110 ft | 141 kts | 156° |
| 2026-05-04 22:52 | -11.96964 | -77.14008 | 934 ft | 140 kts | 156° |
| 2026-05-04 22:53 | -11.97832 | -77.13579 | 748 ft | 137 kts | 156° |
| 2026-05-04 22:53 | -11.98682 | -77.13155 | 602 ft | 135 kts | 156° |
| 2026-05-04 22:53 | -11.99528 | -77.12744 | 400 ft | 134 kts | 155° |
| 2026-05-04 22:53 | -12.00363 | -77.12325 | 207 ft | 133 kts | 155° |
| 2026-05-04 22:54 | -12.01194 | -77.11915 | 61 ft | 129 kts | 156° |
| 2026-05-04 22:54 | -12.01866 | -77.11588 | 70 ft | 72 kts | 157° |
| 2026-05-04 22:54 | -12.02142 | -77.11447 | 82 ft | 29 kts | 135° |
| 2026-05-04 22:54 | -12.02228 | -77.11347 | 89 ft | 12 kts | 130° |
| 2026-05-04 22:55 | -12.02278 | -77.11287 | 87 ft | 10 kts | 130° |
| 2026-05-04 22:55 | -12.02315 | -77.11239 | 88 ft | 7 kts | 124° |
| 2026-05-04 22:55 | -12.02333 | -77.11214 | 89 ft | 0 kts | 125° |
| 2026-05-04 22:56 | -12.02339 | -77.11205 | 89 ft | 2 kts | 125° |
| 2026-05-04 22:57 | -12.02350 | -77.11187 | 91 ft | 6 kts | 122° |
| 2026-05-04 22:57 | -12.02371 | -77.11152 | 92 ft | 7 kts | 122° |
| 2026-05-04 22:57 | -12.02360 | -77.11110 | 91 ft | 6 kts | 23° |
| 2026-05-04 22:57 | -12.02304 | -77.11101 | 92 ft | 9 kts | 9° |
| 2026-05-04 22:58 | -12.02233 | -77.11108 | 87 ft | 12 kts | 354° |
| 2026-05-04 22:58 | -12.02146 | -77.11104 | 89 ft | 12 kts | 27° |
| 2026-05-04 22:58 | -12.02104 | -77.11036 | 87 ft | 11 kts | 62° |
| 2026-05-04 22:58 | -12.02096 | -77.10984 | 87 ft | 3 kts | 141° |
| 2026-05-04 22:59 | -12.02116 | -77.10981 | 88 ft | 3 kts | 175° |
| 2026-05-04 22:59 | -12.02132 | -77.10981 | 88 ft | 1 kts | 178° |
| 2026-05-04 22:59 | -12.02135 | -77.10981 | 89 ft | 0 kts | 178° |